createdAt,value
2023-03-27T00:01:24.711Z,53.36
2023-03-27T00:03:53.969Z,53.87
2023-03-27T00:06:22.099Z,54.90
2023-03-27T00:08:53.985Z,54.87
2023-03-27T00:11:25.210Z,54.34
2023-03-27T00:13:54.888Z,53.28
2023-03-27T00:16:24.249Z,52.90
2023-03-27T00:18:51.717Z,54.07
2023-03-27T00:21:19.657Z,53.16
2023-03-27T00:23:47.031Z,53.04
2023-03-27T00:26:14.621Z,51.77
2023-03-27T00:28:42.256Z,50.06
2023-03-27T00:31:13.568Z,50.51
2023-03-27T00:33:41.547Z,50.34
2023-03-27T00:36:10.045Z,51.02
2023-03-27T00:38:37.204Z,50.82
2023-03-27T00:41:05.112Z,50.33
2023-03-27T00:43:34.491Z,51.79
2023-03-27T00:46:16.161Z,51.49
2023-03-27T00:48:47.409Z,51.86
2023-03-27T00:51:15.957Z,50.84
2023-03-27T00:53:44.060Z,52.63
2023-03-27T00:56:11.685Z,52.11
2023-03-27T00:58:53.106Z,52.40
2023-03-27T01:01:24.087Z,53.07
2023-03-27T01:03:52.804Z,53.53
2023-03-27T01:06:21.585Z,52.21
2023-03-27T01:08:48.413Z,51.86
2023-03-27T01:11:37.317Z,52.69
2023-03-27T01:14:22.458Z,52.52
2023-03-27T01:17:14.560Z,52.22
2023-03-27T01:19:57.026Z,52.10
2023-03-27T01:22:32.748Z,52.66
2023-03-27T01:25:27.854Z,53.25
2023-03-27T01:28:20.999Z,53.93
2023-03-27T01:30:52.680Z,53.73
2023-03-27T01:34:03.835Z,53.65
2023-03-27T01:37:08.167Z,54.57
2023-03-27T01:40:08.191Z,53.92
2023-03-27T01:42:47.528Z,53.95
2023-03-27T01:45:23.437Z,54.23
2023-03-27T01:48:17.377Z,54.71
2023-03-27T01:50:56.893Z,54.41
2023-03-27T01:53:33.627Z,54.28
2023-03-27T01:56:26.898Z,54.76
2023-03-27T01:58:59.841Z,54.51
2023-03-27T02:01:37.971Z,55.30
2023-03-27T02:04:11.381Z,53.38
2023-03-27T02:06:47.663Z,54.46
2023-03-27T02:09:49.431Z,53.39
2023-03-27T02:12:24.776Z,53.37
2023-03-27T02:15:23.981Z,54.88
2023-03-27T02:17:53.661Z,54.07
2023-03-27T02:20:21.376Z,52.97
2023-03-27T02:22:51.569Z,52.88
2023-03-27T02:25:25.694Z,55.00
2023-03-27T02:28:12.826Z,55.27
2023-03-27T02:31:32.632Z,55.97
2023-03-27T02:34:05.281Z,57.40
2023-03-27T02:36:38.833Z,57.29
2023-03-27T02:39:19.051Z,57.67
2023-03-27T02:42:01.034Z,58.03
2023-03-27T02:44:51.979Z,58.68
2023-03-27T02:47:18.827Z,58.44
2023-03-27T02:50:04.484Z,57.23
2023-03-27T02:52:40.009Z,57.25
2023-03-27T02:55:14.457Z,56.36
2023-03-27T02:57:52.334Z,56.55
2023-03-27T03:00:25.889Z,58.47
2023-03-27T03:03:33.075Z,59.51
2023-03-27T03:06:00.192Z,60.41
2023-03-27T03:08:30.793Z,60.00
2023-03-27T03:11:03.591Z,57.67
2023-03-27T03:13:30.932Z,56.31
2023-03-27T03:15:58.617Z,56.86
2023-03-27T03:18:25.450Z,57.86
2023-03-27T03:20:55.018Z,59.71
2023-03-27T03:23:26.374Z,56.98
2023-03-27T03:25:57.014Z,55.44
2023-03-27T03:28:27.579Z,54.84
2023-03-27T03:30:57.362Z,56.03
2023-03-27T03:33:26.254Z,57.21
2023-03-27T03:35:53.590Z,56.99
2023-03-27T03:38:25.177Z,56.35
2023-03-27T03:40:56.510Z,56.20
2023-03-27T03:43:25.604Z,57.07
2023-03-27T03:45:52.782Z,56.24
2023-03-27T03:48:20.661Z,55.22
2023-03-27T03:50:49.521Z,56.28
2023-03-27T03:53:21.879Z,55.54
2023-03-27T03:55:52.654Z,55.58
2023-03-27T03:58:20.291Z,56.24
2023-03-27T04:00:50.061Z,55.93
2023-03-27T04:03:59.547Z,55.66
2023-03-27T04:06:26.701Z,56.97
2023-03-27T04:08:56.110Z,57.00
2023-03-27T04:11:24.734Z,57.55
2023-03-27T04:13:52.900Z,57.95
2023-03-27T04:16:36.843Z,58.82
2023-03-27T04:19:06.319Z,59.77
2023-03-27T04:21:36.643Z,58.72
2023-03-27T04:24:03.936Z,57.31
2023-03-27T04:26:31.408Z,56.94
2023-03-27T04:29:02.541Z,57.03
2023-03-27T04:31:30.502Z,59.48
2023-03-27T04:33:57.698Z,60.30
2023-03-27T04:36:25.741Z,61.33
2023-03-27T04:38:52.684Z,61.02
2023-03-27T04:41:19.528Z,60.53
2023-03-27T04:43:48.446Z,61.97
2023-03-27T04:46:15.264Z,61.31
2023-03-27T04:48:44.027Z,59.94
2023-03-27T04:51:10.999Z,59.83
2023-03-27T04:53:38.108Z,60.84
2023-03-27T04:56:06.293Z,62.53
2023-03-27T04:58:36.693Z,62.12
2023-03-27T05:01:05.847Z,62.94
2023-03-27T05:03:35.298Z,63.12
2023-03-27T05:06:04.321Z,63.38
2023-03-27T05:08:31.760Z,64.33
2023-03-27T05:10:58.979Z,62.38
2023-03-27T05:13:26.136Z,61.20
2023-03-27T05:16:17.386Z,61.26
2023-03-27T05:18:45.301Z,63.35
2023-03-27T05:21:13.522Z,62.30
2023-03-27T05:23:40.802Z,63.27
2023-03-27T05:26:07.818Z,63.68
2023-03-27T05:28:34.839Z,62.37
2023-03-27T05:31:34.342Z,62.35
2023-03-27T05:34:03.167Z,62.61
2023-03-27T05:36:30.475Z,63.49
2023-03-27T05:38:57.998Z,61.73
2023-03-27T05:41:25.081Z,60.69
2023-03-27T05:43:52.457Z,59.92
2023-03-27T05:46:21.388Z,59.74
2023-03-27T05:48:48.765Z,60.08
2023-03-27T05:51:16.106Z,59.81
2023-03-27T05:53:43.193Z,60.18
2023-03-27T05:56:10.628Z,58.07
2023-03-27T05:58:37.549Z,58.41
2023-03-27T06:01:05.030Z,58.42
2023-03-27T06:03:35.760Z,58.47
2023-03-27T06:06:11.319Z,58.82
2023-03-27T06:08:38.864Z,58.23
2023-03-27T06:11:10.391Z,57.53
2023-03-27T06:13:38.196Z,56.21
2023-03-27T06:16:05.989Z,55.92
2023-03-27T06:18:33.756Z,54.98
2023-03-27T06:21:00.841Z,54.32
2023-03-27T06:23:27.840Z,54.82
2023-03-27T06:25:54.726Z,54.15
2023-03-27T06:28:21.824Z,52.83
2023-03-27T06:30:49.970Z,53.14
2023-03-27T06:33:16.888Z,53.17
2023-03-27T06:35:52.891Z,52.93
2023-03-27T06:38:20.945Z,53.07
2023-03-27T06:40:47.908Z,53.11
2023-03-27T06:43:18.202Z,52.96
2023-03-27T06:45:49.282Z,52.08
2023-03-27T06:48:21.339Z,52.24
2023-03-27T06:50:50.914Z,53.40
2023-03-27T06:55:49.696Z,53.58
2023-03-27T06:58:19.449Z,53.08
2023-03-27T07:00:49.016Z,53.46
2023-03-27T07:03:18.258Z,53.68
2023-03-27T07:05:49.314Z,53.36
2023-03-27T07:08:24.921Z,53.26
2023-03-27T07:11:10.069Z,53.55
2023-03-27T07:13:38.355Z,53.06
2023-03-27T07:16:05.866Z,54.06
2023-03-27T07:18:32.724Z,52.18
2023-03-27T07:21:00.053Z,50.85
2023-03-27T07:23:27.450Z,51.05
2023-03-27T07:25:59.098Z,51.10
2023-03-27T07:28:26.295Z,51.51
2023-03-27T07:30:53.766Z,50.77
2023-03-27T07:33:20.729Z,51.20
2023-03-27T07:35:51.039Z,51.08
2023-03-27T07:38:21.201Z,50.02
2023-03-27T07:40:49.816Z,49.89
2023-03-27T07:43:16.602Z,49.98
2023-03-27T07:45:43.616Z,50.56
2023-03-27T07:48:17.504Z,50.61
2023-03-27T07:50:45.380Z,51.18
2023-03-27T07:53:33.319Z,51.38
2023-03-27T07:56:00.034Z,51.34
2023-03-27T07:58:27.220Z,51.02
2023-03-27T08:00:54.465Z,50.94
2023-03-27T08:03:23.490Z,50.93
2023-03-27T08:05:56.103Z,50.16
2023-03-27T08:08:24.753Z,49.38
2023-03-27T08:10:54.426Z,48.49
2023-03-27T08:13:21.213Z,48.12
2023-03-27T08:15:48.548Z,48.89
2023-03-27T08:18:15.287Z,48.38
2023-03-27T08:20:42.522Z,48.10
2023-03-27T08:23:10.062Z,46.23
2023-03-27T08:25:36.765Z,44.94
2023-03-27T08:28:03.436Z,44.64
2023-03-27T08:30:30.789Z,45.28
2023-03-27T08:32:58.600Z,45.14
2023-03-27T08:35:25.441Z,45.89
2023-03-27T08:37:54.621Z,45.93
2023-03-27T08:40:28.155Z,46.20
2023-03-27T08:43:00.181Z,46.64
2023-03-27T08:45:32.166Z,46.84
2023-03-27T08:48:08.442Z,47.05
2023-03-27T08:50:41.383Z,47.76
2023-03-27T08:53:35.087Z,47.90
2023-03-27T08:56:03.220Z,47.64
2023-03-27T08:58:30.695Z,48.17
2023-03-27T09:01:05.946Z,47.76
2023-03-27T09:03:41.069Z,47.94
2023-03-27T09:06:20.999Z,48.89
2023-03-27T09:09:24.584Z,47.89
2023-03-27T09:12:24.104Z,48.32
2023-03-27T09:15:00.754Z,48.24
2023-03-27T09:17:34.967Z,48.40
2023-03-27T09:20:22.040Z,49.19
2023-03-27T09:22:54.385Z,49.33
2023-03-27T09:25:34.674Z,50.37
2023-03-27T09:28:03.900Z,50.64
2023-03-27T09:30:33.802Z,50.70
2023-03-27T09:33:06.053Z,50.98
2023-03-27T09:35:35.780Z,51.75
2023-03-27T09:38:17.629Z,52.12
2023-03-27T09:41:02.990Z,52.02
2023-03-27T09:43:43.220Z,52.37
2023-03-27T09:46:13.095Z,52.15
2023-03-27T09:48:50.770Z,52.39
2023-03-27T09:51:37.773Z,52.15
2023-03-27T09:54:05.755Z,52.14
2023-03-27T09:56:37.767Z,52.68
2023-03-27T09:59:38.916Z,52.72
2023-03-27T10:02:23.009Z,52.83
2023-03-27T10:05:22.644Z,52.96
2023-03-27T10:07:49.420Z,53.30
2023-03-27T10:10:21.288Z,53.05
2023-03-27T10:12:56.444Z,53.74
2023-03-27T10:15:37.085Z,53.74
2023-03-27T10:18:20.887Z,54.16
2023-03-27T10:20:52.858Z,54.31
2023-03-27T10:23:28.648Z,53.77
2023-03-27T10:26:01.726Z,53.50
2023-03-27T10:28:34.828Z,52.94
2023-03-27T10:31:05.767Z,52.86
2023-03-27T10:33:35.868Z,53.57
2023-03-27T10:36:06.873Z,53.47
2023-03-27T10:38:37.053Z,53.30
2023-03-27T10:41:14.463Z,53.41
2023-03-27T10:43:43.980Z,53.60
2023-03-27T10:46:15.146Z,53.35
2023-03-27T10:48:52.681Z,53.79
2023-03-27T10:51:46.513Z,53.83
2023-03-27T10:54:37.489Z,53.44
2023-03-27T10:57:15.180Z,53.56
2023-03-27T11:00:20.469Z,53.89
2023-03-27T11:03:00.310Z,53.92
2023-03-27T11:05:32.012Z,54.72
2023-03-27T11:08:11.616Z,54.44
2023-03-27T11:10:42.597Z,54.46
2023-03-27T11:13:22.895Z,54.25
2023-03-27T11:15:55.938Z,55.05
2023-03-27T11:18:26.176Z,56.34
2023-03-27T11:21:13.036Z,57.04
2023-03-27T11:23:52.725Z,58.08
2023-03-27T11:26:26.196Z,59.28
2023-03-27T11:29:20.641Z,58.96
2023-03-27T11:31:51.558Z,61.34
2023-03-27T11:34:34.538Z,65.69
2023-03-27T11:37:13.174Z,67.76
2023-03-27T11:39:48.463Z,70.30
2023-03-27T11:42:21.070Z,70.23
2023-03-27T11:44:51.558Z,72.00
2023-03-27T11:47:42.194Z,72.79
2023-03-27T11:50:36.201Z,74.35
2023-03-27T11:53:06.601Z,77.10
2023-03-27T11:56:01.028Z,84.00
2023-03-27T11:58:44.083Z,89.36
2023-03-27T12:01:17.756Z,90.86
2023-03-27T12:04:00.426Z,94.75
2023-03-27T12:06:33.919Z,96.24
2023-03-27T12:09:08.087Z,95.11
2023-03-27T12:11:42.538Z,99.21
2023-03-27T12:14:40.493Z,97.97
2023-03-27T12:17:11.138Z,96.86
2023-03-27T12:19:53.494Z,94.86
2023-03-27T12:22:54.032Z,100.00
2023-03-27T12:25:36.450Z,100.00
2023-03-27T12:28:27.066Z,100.00
2023-03-27T12:31:16.442Z,100.00
2023-03-27T12:34:16.283Z,100.00
2023-03-27T12:36:48.558Z,100.00
2023-03-27T12:42:14.336Z,100.00
2023-03-27T12:45:14.473Z,100.00
2023-03-27T12:47:46.114Z,100.00
2023-03-27T12:50:28.536Z,100.00
2023-03-27T12:52:57.065Z,100.00
2023-03-27T12:58:37.567Z,100.00
2023-03-27T13:01:09.403Z,100.00
2023-03-27T13:04:09.237Z,100.00
2023-03-27T13:06:44.033Z,100.00
2023-03-27T13:09:24.649Z,100.00
2023-03-27T13:12:26.440Z,100.00
2023-03-27T13:15:21.532Z,100.00
2023-03-27T13:18:23.652Z,100.00
2023-03-27T13:21:16.814Z,100.00
2023-03-27T13:23:55.187Z,100.00
2023-03-27T13:26:48.817Z,100.00
2023-03-27T13:29:19.843Z,100.00
2023-03-27T13:31:47.003Z,100.00
2023-03-27T13:34:41.965Z,100.00
2023-03-27T13:37:11.810Z,100.00
2023-03-27T13:39:56.924Z,100.00
2023-03-27T13:42:50.160Z,97.65
2023-03-27T13:45:47.154Z,98.52
2023-03-27T13:48:19.456Z,100.00
2023-03-27T13:51:01.986Z,100.00
2023-03-27T13:53:53.077Z,100.00
2023-03-27T13:56:44.306Z,100.00
2023-03-27T13:59:40.334Z,100.00
2023-03-27T14:02:18.927Z,97.68
2023-03-27T14:04:46.124Z,94.74
2023-03-27T14:07:37.256Z,94.56
2023-03-27T14:10:17.442Z,95.11
2023-03-27T14:12:53.595Z,93.96
2023-03-27T14:15:42.504Z,96.54
2023-03-27T14:18:12.767Z,97.25
2023-03-27T14:20:46.066Z,91.91
2023-03-27T14:23:19.477Z,93.45
2023-03-27T14:25:53.822Z,93.70
2023-03-27T14:28:33.397Z,94.80
2023-03-27T14:31:06.208Z,92.32
2023-03-27T14:33:34.288Z,91.95
2023-03-27T14:36:05.635Z,91.06
2023-03-27T14:38:35.766Z,93.60
2023-03-27T14:41:17.576Z,96.40
2023-03-27T14:43:52.715Z,96.81
2023-03-27T14:46:21.609Z,95.56
2023-03-27T14:48:53.386Z,95.33
2023-03-27T14:51:27.274Z,90.94
2023-03-27T14:54:01.971Z,91.37
2023-03-27T14:56:37.931Z,91.78
2023-03-27T14:59:12.560Z,94.64
2023-03-27T15:01:41.035Z,95.35
2023-03-27T15:04:11.423Z,95.74
2023-03-27T15:06:39.254Z,95.86
2023-03-27T15:09:14.484Z,98.63
2023-03-27T15:11:44.799Z,97.04
2023-03-27T15:14:18.652Z,96.04
2023-03-27T15:16:55.538Z,96.28
2023-03-27T15:19:28.743Z,96.39
2023-03-27T15:22:01.137Z,96.79
2023-03-27T15:24:43.585Z,94.80
2023-03-27T15:27:27.435Z,93.76
2023-03-27T15:30:00.324Z,91.20
2023-03-27T15:32:52.576Z,93.65
2023-03-27T15:35:27.983Z,92.26
2023-03-27T15:37:56.939Z,96.41
2023-03-27T15:40:42.619Z,97.55
2023-03-27T15:43:12.710Z,96.10
2023-03-27T15:45:56.726Z,94.37
2023-03-27T15:48:35.674Z,91.37
2023-03-27T15:51:04.499Z,90.94
2023-03-27T15:53:36.576Z,88.97
2023-03-27T15:56:13.892Z,93.77
2023-03-27T15:58:48.324Z,95.06
2023-03-27T16:01:28.558Z,92.08
2023-03-27T16:04:02.436Z,94.29
2023-03-27T16:06:37.420Z,92.03
2023-03-27T16:09:10.572Z,92.63
2023-03-27T16:11:45.725Z,95.08
2023-03-27T16:14:41.304Z,92.52
2023-03-27T16:17:20.626Z,91.95
2023-03-27T16:19:55.208Z,93.76
2023-03-27T16:22:35.789Z,93.46
2023-03-27T16:25:07.953Z,95.28
2023-03-27T16:27:45.172Z,94.80
2023-03-27T16:30:32.897Z,97.22
2023-03-27T16:33:02.967Z,99.47
2023-03-27T16:35:34.790Z,100.00
2023-03-27T16:38:02.086Z,100.00
2023-03-27T16:40:28.909Z,100.00
2023-03-27T16:42:55.936Z,100.00
2023-03-27T16:45:23.081Z,100.00
2023-03-27T16:47:53.072Z,100.00
2023-03-27T16:50:23.435Z,100.00
2023-03-27T16:52:51.313Z,100.00
2023-03-27T16:55:18.251Z,100.00
2023-03-27T16:57:47.011Z,100.00
2023-03-27T17:00:15.761Z,100.00
2023-03-27T17:02:45.511Z,100.00
2023-03-27T17:05:15.065Z,100.00
2023-03-27T17:07:42.004Z,100.00
2023-03-27T17:10:10.608Z,100.00
2023-03-27T17:12:37.906Z,100.00
2023-03-27T17:15:05.166Z,100.00
2023-03-27T17:17:32.221Z,100.00
2023-03-27T17:19:59.484Z,100.00
2023-03-27T17:22:26.820Z,100.00
2023-03-27T17:24:57.311Z,100.00
2023-03-27T17:27:28.456Z,100.00
2023-03-27T17:29:58.592Z,100.00
2023-03-27T17:32:28.717Z,100.00
2023-03-27T17:34:56.097Z,100.00
2023-03-27T17:37:24.029Z,100.00
2023-03-27T17:39:51.199Z,100.00
2023-03-27T17:42:21.086Z,100.00
2023-03-27T17:45:03.843Z,100.00
2023-03-27T17:47:31.682Z,100.00
2023-03-27T17:50:01.732Z,100.00
2023-03-27T17:52:29.795Z,100.00
2023-03-27T17:55:20.169Z,100.00
2023-03-27T17:57:53.111Z,100.00
2023-03-27T18:00:26.520Z,100.00
2023-03-27T18:03:13.508Z,100.00
2023-03-27T18:05:42.028Z,100.00
2023-03-27T18:08:11.146Z,100.00
2023-03-27T18:10:53.872Z,100.00
2023-03-27T18:13:20.666Z,100.00
2023-03-27T18:15:55.696Z,100.00
2023-03-27T18:18:23.126Z,100.00
2023-03-27T18:20:54.199Z,100.00
2023-03-27T18:23:24.185Z,100.00
2023-03-27T18:25:50.974Z,100.00
2023-03-27T18:28:17.856Z,100.00
2023-03-27T18:30:45.186Z,100.00
2023-03-27T18:33:12.000Z,100.00
2023-03-27T18:35:39.476Z,100.00
2023-03-27T18:38:07.153Z,100.00
2023-03-27T18:40:34.287Z,100.00
2023-03-27T18:43:01.083Z,100.00
2023-03-27T18:45:29.928Z,100.00
2023-03-27T18:47:57.390Z,100.00
2023-03-27T18:50:24.297Z,100.00
2023-03-27T18:52:51.351Z,100.00
2023-03-27T18:55:18.372Z,100.00
2023-03-27T18:57:45.572Z,100.00
2023-03-27T19:00:18.990Z,100.00
2023-03-27T19:02:48.702Z,100.00
2023-03-27T19:05:16.427Z,100.00
2023-03-27T19:07:44.982Z,100.00
2023-03-27T19:10:12.890Z,100.00
2023-03-27T19:12:39.558Z,100.00
2023-03-27T19:15:19.233Z,100.00
2023-03-27T19:17:46.799Z,100.00
2023-03-27T19:20:14.363Z,100.00
2023-03-27T19:22:41.321Z,100.00
2023-03-27T19:25:09.096Z,100.00
2023-03-27T19:27:39.423Z,100.00
2023-03-27T19:30:07.985Z,100.00
2023-03-27T19:32:34.885Z,100.00
2023-03-27T19:35:02.127Z,100.00
2023-03-27T19:37:30.025Z,100.00
2023-03-27T19:39:59.718Z,100.00
2023-03-27T19:42:28.947Z,100.00
2023-03-27T19:44:56.836Z,100.00
2023-03-27T19:47:24.089Z,100.00
2023-03-27T19:49:51.370Z,100.00
2023-03-27T19:52:24.573Z,100.00
2023-03-27T20:21:56.474Z,95.55
2023-03-27T20:24:26.657Z,97.51
2023-03-27T20:29:41.121Z,100.00
2023-03-27T20:32:08.934Z,100.00
2023-03-27T20:34:43.275Z,100.00
2023-03-27T20:37:12.155Z,100.00
2023-03-27T20:39:49.887Z,100.00
2023-03-27T20:42:18.251Z,100.00
2023-03-27T20:44:45.990Z,100.00
2023-03-27T20:47:15.222Z,100.00
2023-03-27T20:49:43.552Z,100.00
2023-03-27T20:52:18.204Z,100.00
2023-03-27T20:54:45.663Z,100.00
2023-03-27T20:57:12.539Z,100.00
2023-03-27T20:59:48.839Z,100.00
2023-03-27T21:02:19.331Z,100.00
2023-03-27T21:04:47.441Z,100.00
2023-03-27T21:07:17.030Z,100.00
2023-03-27T21:10:02.863Z,100.00
2023-03-27T21:12:30.654Z,100.00
2023-03-27T21:14:57.469Z,100.00
2023-03-27T21:17:24.627Z,100.00
2023-03-27T21:19:52.004Z,100.00
2023-03-27T21:22:18.905Z,100.00
2023-03-27T21:24:45.964Z,100.00
2023-03-27T21:27:13.654Z,100.00
2023-03-27T21:29:41.114Z,100.00
2023-03-27T21:32:08.213Z,100.00
2023-03-27T21:34:36.083Z,100.00
2023-03-27T21:37:03.044Z,100.00
2023-03-27T21:39:29.812Z,100.00
2023-03-27T21:44:39.366Z,100.00
2023-03-27T21:47:47.219Z,100.00
2023-03-27T21:50:14.700Z,100.00
2023-03-27T21:52:44.303Z,100.00
2023-03-27T21:55:11.069Z,100.00
2023-03-27T21:57:38.043Z,100.00
2023-03-27T22:00:07.861Z,100.00
2023-03-27T22:02:34.733Z,100.00
2023-03-27T22:05:05.123Z,100.00
2023-03-27T22:07:35.397Z,100.00
2023-03-27T22:10:03.636Z,100.00
2023-03-27T22:12:31.178Z,100.00
2023-03-27T22:14:58.454Z,100.00
2023-03-27T22:17:25.244Z,100.00
2023-03-27T22:19:52.513Z,100.00
2023-03-27T22:22:19.785Z,100.00
2023-03-27T22:24:50.419Z,100.00
2023-03-27T22:27:17.758Z,100.00
2023-03-27T22:29:47.085Z,100.00
2023-03-27T22:32:14.051Z,100.00
2023-03-27T22:34:41.150Z,100.00
2023-03-27T22:37:08.368Z,100.00
2023-03-27T22:39:35.465Z,100.00
2023-03-27T22:42:33.226Z,100.00
2023-03-27T22:45:00.498Z,100.00
2023-03-27T22:47:27.879Z,100.00
2023-03-27T22:49:56.008Z,100.00
2023-03-27T22:52:25.380Z,100.00
2023-03-27T22:54:52.553Z,100.00
2023-03-27T22:57:19.419Z,100.00
2023-03-27T22:59:48.942Z,100.00
2023-03-27T23:02:16.487Z,100.00
2023-03-27T23:04:51.017Z,100.00
2023-03-27T23:07:23.566Z,100.00
2023-03-27T23:10:05.252Z,100.00
2023-03-27T23:12:32.421Z,100.00
2023-03-27T23:14:59.109Z,100.00
2023-03-27T23:17:25.945Z,100.00
2023-03-27T23:19:52.834Z,100.00
2023-03-27T23:22:19.629Z,100.00
2023-03-27T23:24:46.844Z,100.00
2023-03-27T23:27:14.151Z,100.00
2023-03-27T23:29:40.846Z,100.00
2023-03-27T23:32:07.566Z,100.00
2023-03-27T23:34:34.633Z,100.00
2023-03-27T23:37:01.363Z,100.00
2023-03-27T23:39:28.393Z,100.00
2023-03-27T23:41:55.561Z,100.00
2023-03-27T23:44:22.405Z,100.00
2023-03-27T23:46:49.116Z,100.00
2023-03-27T23:49:16.533Z,100.00
2023-03-27T23:51:43.213Z,100.00
2023-03-27T23:54:09.963Z,100.00
2023-03-27T23:56:36.954Z,100.00
2023-03-27T23:59:03.691Z,100.00
